createdAt,value
2023-02-18T00:01:48.637Z,49.06
2023-02-18T00:04:19.609Z,48.91
2023-02-18T00:06:50.608Z,49.05
2023-02-18T00:09:27.198Z,49.05
2023-02-18T00:14:59.013Z,49.06
2023-02-18T00:17:36.167Z,49.25
2023-02-18T00:20:08.557Z,49.08
2023-02-18T00:22:57.194Z,49.30
2023-02-18T00:26:00.416Z,49.03
2023-02-18T00:28:45.669Z,49.31
2023-02-18T00:31:19.432Z,49.28
2023-02-18T00:33:50.556Z,49.58
2023-02-18T00:36:43.283Z,49.45
2023-02-18T00:39:14.022Z,49.27
2023-02-18T00:41:44.951Z,49.27
2023-02-18T00:44:15.874Z,49.66
2023-02-18T00:46:48.415Z,49.59
2023-02-18T00:49:19.248Z,49.57
2023-02-18T00:51:50.602Z,49.68
2023-02-18T00:54:21.433Z,49.91
2023-02-18T00:56:52.239Z,49.66
2023-02-18T00:59:23.070Z,49.55
2023-02-18T01:01:53.967Z,49.90
2023-02-18T01:04:24.897Z,49.71
2023-02-18T01:06:55.713Z,49.68
2023-02-18T01:09:27.044Z,49.58
2023-02-18T01:11:57.901Z,49.41
2023-02-18T01:14:28.896Z,49.85
2023-02-18T01:16:59.805Z,49.95
2023-02-18T01:19:30.753Z,49.87
2023-02-18T01:22:01.668Z,49.93
2023-02-18T01:24:32.566Z,50.08
2023-02-18T01:27:05.759Z,49.91
2023-02-18T01:29:36.601Z,49.90
2023-02-18T01:32:07.627Z,50.11
2023-02-18T01:34:38.625Z,50.22
2023-02-18T01:37:09.491Z,49.97
2023-02-18T01:39:40.226Z,50.10
2023-02-18T01:42:15.830Z,50.26
2023-02-18T01:44:47.729Z,50.10
2023-02-18T01:47:18.871Z,50.17
2023-02-18T01:49:51.168Z,50.23
2023-02-18T01:52:22.714Z,50.13
2023-02-18T01:54:57.776Z,50.24
2023-02-18T01:57:29.183Z,50.52
2023-02-18T02:00:00.358Z,50.50
2023-02-18T02:02:31.913Z,50.45
2023-02-18T02:05:04.415Z,50.53
2023-02-18T02:07:35.249Z,50.54
2023-02-18T02:10:06.566Z,50.51
2023-02-18T02:12:41.130Z,50.69
2023-02-18T02:15:24.576Z,50.77
2023-02-18T02:18:00.343Z,50.96
2023-02-18T02:20:47.472Z,50.69
2023-02-18T02:23:46.962Z,50.87
2023-02-18T02:26:28.851Z,50.81
2023-02-18T02:29:06.123Z,50.97
2023-02-18T02:31:53.071Z,51.07
2023-02-18T02:34:40.645Z,51.08
2023-02-18T02:37:13.036Z,51.18
2023-02-18T02:39:45.352Z,51.16
2023-02-18T02:42:17.425Z,50.96
2023-02-18T02:44:49.583Z,51.36
2023-02-18T02:47:21.771Z,51.25
2023-02-18T02:49:54.980Z,51.40
2023-02-18T02:52:27.768Z,51.62
2023-02-18T02:54:58.581Z,51.28
2023-02-18T02:57:44.661Z,51.35
2023-02-18T03:00:16.440Z,51.63
2023-02-18T03:02:52.439Z,51.67
2023-02-18T03:05:25.734Z,51.52
2023-02-18T03:08:10.031Z,51.62
2023-02-18T03:10:47.369Z,51.68
2023-02-18T03:13:23.707Z,51.78
2023-02-18T03:15:57.278Z,51.71
2023-02-18T03:18:30.493Z,51.94
2023-02-18T03:21:01.865Z,52.14
2023-02-18T03:23:34.071Z,52.09
2023-02-18T03:26:05.063Z,52.16
2023-02-18T03:28:35.984Z,52.12
2023-02-18T03:31:09.475Z,52.27
2023-02-18T03:33:41.225Z,52.22
2023-02-18T03:36:12.264Z,52.32
2023-02-18T03:38:44.210Z,52.26
2023-02-18T03:41:14.984Z,52.11
2023-02-18T03:43:51.870Z,52.28
2023-02-18T03:46:22.806Z,52.46
2023-02-18T03:48:53.745Z,52.35
2023-02-18T03:51:24.739Z,52.62
2023-02-18T03:53:55.686Z,52.59
2023-02-18T03:56:27.820Z,52.43
2023-02-18T03:58:58.613Z,52.45
2023-02-18T04:01:29.823Z,52.41
2023-02-18T04:04:00.727Z,52.51
2023-02-18T04:06:31.635Z,52.41
2023-02-18T04:09:02.797Z,52.49
2023-02-18T04:11:33.739Z,52.35
2023-02-18T04:14:04.832Z,52.47
2023-02-18T04:16:35.691Z,52.44
2023-02-18T04:19:06.573Z,52.49
2023-02-18T04:21:37.339Z,52.59
2023-02-18T04:24:08.522Z,52.46
2023-02-18T04:26:39.500Z,52.42
2023-02-18T04:29:10.665Z,52.47
2023-02-18T04:31:41.759Z,52.38
2023-02-18T04:34:12.812Z,52.55
2023-02-18T04:36:43.635Z,52.46
2023-02-18T04:39:14.770Z,52.42
2023-02-18T04:41:45.505Z,52.37
2023-02-18T04:44:16.258Z,52.63
2023-02-18T04:46:47.038Z,52.58
2023-02-18T04:49:17.829Z,52.46
2023-02-18T04:51:48.547Z,52.40
2023-02-18T04:54:19.268Z,52.54
2023-02-18T04:56:50.118Z,52.53
2023-02-18T04:59:20.844Z,52.63
2023-02-18T05:01:51.755Z,52.60
2023-02-18T05:04:22.703Z,52.58
2023-02-18T05:06:53.708Z,52.62
2023-02-18T05:09:24.544Z,52.71
2023-02-18T05:11:55.911Z,52.80
2023-02-18T05:14:26.611Z,53.04
2023-02-18T05:16:57.480Z,52.68
2023-02-18T05:19:28.624Z,52.61
2023-02-18T05:21:59.536Z,52.56
2023-02-18T05:24:32.320Z,52.92
2023-02-18T05:27:02.978Z,52.71
2023-02-18T05:29:33.932Z,53.04
2023-02-18T05:32:04.789Z,52.93
2023-02-18T05:34:35.679Z,53.09
2023-02-18T05:37:06.548Z,52.93
2023-02-18T05:39:37.262Z,52.97
2023-02-18T05:42:10.549Z,53.10
2023-02-18T05:44:41.339Z,52.89
2023-02-18T05:47:12.840Z,53.10
2023-02-18T05:49:43.840Z,53.05
2023-02-18T05:52:14.766Z,52.95
2023-02-18T05:54:45.994Z,52.98
2023-02-18T05:57:16.910Z,52.92
2023-02-18T05:59:47.755Z,52.96
2023-02-18T06:02:18.699Z,53.21
2023-02-18T06:04:51.935Z,52.94
2023-02-18T06:07:22.660Z,53.11
2023-02-18T06:09:53.966Z,52.99
2023-02-18T06:12:24.781Z,52.94
2023-02-18T06:14:55.577Z,53.15
2023-02-18T06:17:26.502Z,53.02
2023-02-18T06:19:57.383Z,52.99
2023-02-18T06:22:28.584Z,53.20
2023-02-18T06:24:59.413Z,53.14
2023-02-18T06:27:30.132Z,53.11
2023-02-18T06:30:01.032Z,53.12
2023-02-18T06:32:31.967Z,53.16
2023-02-18T06:35:02.674Z,53.14
2023-02-18T06:37:33.560Z,52.92
2023-02-18T06:40:04.418Z,53.17
2023-02-18T06:42:35.271Z,53.04
2023-02-18T06:45:06.930Z,53.13
2023-02-18T06:47:37.888Z,53.11
2023-02-18T06:50:09.280Z,53.11
2023-02-18T06:52:39.906Z,53.19
2023-02-18T06:55:10.748Z,53.07
2023-02-18T06:57:41.527Z,53.06
2023-02-18T07:00:13.033Z,53.13
2023-02-18T07:02:43.947Z,53.06
2023-02-18T07:05:14.899Z,53.06
2023-02-18T07:07:45.586Z,53.12
2023-02-18T07:10:16.588Z,53.00
2023-02-18T07:12:47.383Z,53.08
2023-02-18T07:15:18.170Z,53.16
2023-02-18T07:17:49.018Z,53.07
2023-02-18T07:20:20.129Z,52.99
2023-02-18T07:22:50.935Z,53.00
2023-02-18T07:25:23.295Z,53.10
2023-02-18T07:27:54.333Z,53.09
2023-02-18T07:30:25.215Z,53.07
2023-02-18T07:32:56.057Z,53.03
2023-02-18T07:35:26.734Z,53.10
2023-02-18T07:37:58.126Z,53.05
2023-02-18T07:40:29.243Z,53.09
2023-02-18T07:43:00.129Z,52.98
2023-02-18T07:45:31.379Z,53.04
2023-02-18T07:48:02.342Z,53.01
2023-02-18T07:50:35.703Z,53.05
2023-02-18T07:53:06.761Z,53.10
2023-02-18T07:55:54.169Z,53.04
2023-02-18T07:58:26.176Z,53.15
2023-02-18T08:00:57.493Z,53.09
2023-02-18T08:03:29.130Z,53.20
2023-02-18T08:06:00.106Z,53.13
2023-02-18T08:08:32.072Z,53.20
2023-02-18T08:11:13.396Z,53.19
2023-02-18T08:13:49.480Z,53.17
2023-02-18T08:16:21.544Z,52.93
2023-02-18T08:18:52.531Z,52.92
2023-02-18T08:21:23.789Z,53.10
2023-02-18T08:23:54.782Z,53.22
2023-02-18T08:26:25.889Z,52.91
2023-02-18T08:28:56.731Z,53.02
2023-02-18T08:31:29.101Z,52.88
2023-02-18T08:34:00.629Z,53.05
2023-02-18T08:36:31.690Z,52.92
2023-02-18T08:39:02.542Z,52.97
2023-02-18T08:41:33.352Z,52.98
2023-02-18T08:44:04.235Z,52.97
2023-02-18T08:46:36.054Z,53.05
2023-02-18T08:49:08.844Z,53.11
2023-02-18T08:51:39.676Z,53.11
2023-02-18T08:54:10.523Z,52.89
2023-02-18T08:56:42.207Z,52.82
2023-02-18T08:59:14.241Z,52.93
2023-02-18T09:01:45.300Z,52.74
2023-02-18T09:04:16.237Z,52.90
2023-02-18T09:06:47.754Z,52.80
2023-02-18T09:09:18.597Z,52.72
2023-02-18T09:11:49.427Z,52.80
2023-02-18T09:14:20.191Z,52.60
2023-02-18T09:16:51.525Z,52.45
2023-02-18T09:19:22.378Z,52.63
2023-02-18T09:21:53.579Z,52.64
2023-02-18T09:24:25.351Z,52.60
2023-02-18T09:26:56.302Z,52.54
2023-02-18T09:29:28.296Z,52.51
2023-02-18T09:31:59.226Z,52.57
2023-02-18T09:34:30.253Z,52.50
2023-02-18T09:37:01.209Z,52.61
2023-02-18T09:39:32.472Z,52.64
2023-02-18T09:42:07.113Z,52.39
2023-02-18T09:44:42.871Z,52.41
2023-02-18T09:47:14.711Z,52.56
2023-02-18T09:49:50.386Z,52.49
2023-02-18T09:52:29.790Z,52.65
2023-02-18T09:55:15.553Z,52.39
2023-02-18T09:57:47.657Z,52.50
2023-02-18T10:00:27.479Z,52.41
2023-02-18T10:03:01.581Z,52.52
2023-02-18T10:05:33.193Z,52.30
2023-02-18T10:08:06.487Z,52.32
2023-02-18T10:10:38.998Z,52.45
2023-02-18T10:13:12.692Z,52.23
2023-02-18T10:15:44.474Z,52.40
2023-02-18T10:18:21.729Z,52.46
2023-02-18T10:20:52.814Z,52.27
2023-02-18T10:23:23.674Z,52.42
2023-02-18T10:25:54.554Z,52.45
2023-02-18T10:28:25.458Z,52.36
2023-02-18T10:31:28.299Z,52.16
2023-02-18T10:33:58.003Z,52.29
2023-02-18T10:36:31.129Z,52.32
2023-02-18T10:39:08.219Z,52.21
2023-02-18T10:41:45.389Z,52.09
2023-02-18T10:44:29.440Z,52.14
2023-02-18T10:47:03.062Z,52.26
2023-02-18T10:49:44.471Z,52.34
2023-02-18T10:52:19.364Z,52.28
2023-02-18T10:55:16.412Z,52.26
2023-02-18T10:57:51.727Z,51.99
2023-02-18T11:00:24.836Z,52.08
2023-02-18T11:03:14.198Z,52.16
2023-02-18T11:05:47.546Z,52.06
2023-02-18T11:08:19.262Z,51.84
2023-02-18T11:10:50.814Z,51.98
2023-02-18T11:13:26.678Z,51.99
2023-02-18T11:15:59.265Z,51.96
2023-02-18T11:18:32.769Z,51.81
2023-02-18T11:21:06.451Z,51.87
2023-02-18T11:23:47.105Z,51.82
2023-02-18T11:26:18.262Z,51.82
2023-02-18T11:28:53.321Z,51.80
2023-02-18T11:31:27.809Z,51.75
2023-02-18T11:33:59.008Z,51.73
2023-02-18T11:36:31.471Z,51.86
2023-02-18T11:39:04.927Z,51.73
2023-02-18T11:41:37.409Z,51.86
2023-02-18T11:44:09.523Z,51.85
2023-02-18T11:47:13.651Z,51.62
2023-02-18T11:49:42.959Z,51.77
2023-02-18T11:52:19.610Z,51.80
2023-02-18T11:55:03.501Z,51.74
2023-02-18T11:57:35.173Z,51.70
2023-02-18T12:00:06.890Z,51.65
2023-02-18T12:02:40.438Z,51.75
2023-02-18T12:05:13.285Z,51.70
2023-02-18T12:07:46.302Z,51.74
2023-02-18T12:10:17.470Z,51.67
2023-02-18T12:12:49.423Z,51.78
2023-02-18T12:15:22.604Z,51.65
2023-02-18T12:17:58.308Z,51.54
2023-02-18T12:20:33.748Z,51.59
2023-02-18T12:23:06.810Z,51.57
2023-02-18T12:25:40.814Z,51.65
2023-02-18T12:28:18.605Z,51.58
2023-02-18T12:30:55.528Z,51.58
2023-02-18T12:33:28.249Z,51.64
2023-02-18T12:36:02.206Z,51.44
2023-02-18T12:38:49.970Z,51.49
2023-02-18T12:41:37.019Z,51.52
2023-02-18T12:44:24.577Z,51.36
2023-02-18T12:47:07.831Z,51.45
2023-02-18T12:50:05.197Z,51.45
2023-02-18T12:52:42.972Z,51.40
2023-02-18T12:55:25.645Z,51.39
2023-02-18T12:58:27.345Z,51.38
2023-02-18T13:01:06.867Z,51.40
2023-02-18T13:04:10.238Z,51.43
2023-02-18T13:06:52.604Z,51.33
2023-02-18T13:09:25.974Z,51.42
2023-02-18T13:11:57.797Z,51.46
2023-02-18T13:14:30.142Z,51.35
2023-02-18T13:17:01.703Z,51.28
2023-02-18T13:19:33.225Z,51.42
2023-02-18T13:22:05.778Z,51.29
2023-02-18T13:24:37.465Z,51.32
2023-02-18T13:27:10.295Z,51.23
2023-02-18T13:29:41.324Z,51.30
2023-02-18T13:32:14.520Z,51.09
2023-02-18T13:34:47.183Z,50.96
2023-02-18T13:37:19.999Z,50.65
2023-02-18T13:39:52.913Z,50.64
2023-02-18T13:42:28.438Z,50.45
2023-02-18T13:45:18.865Z,50.40
2023-02-18T13:47:49.832Z,50.10
2023-02-18T13:50:30.898Z,50.09
2023-02-18T13:53:15.798Z,49.89
2023-02-18T13:55:50.345Z,49.90
2023-02-18T13:58:21.523Z,49.88
2023-02-18T14:00:53.575Z,49.75
2023-02-18T14:03:33.543Z,49.59
2023-02-18T14:06:05.870Z,49.75
2023-02-18T14:09:02.608Z,49.61
2023-02-18T14:11:37.895Z,49.60
2023-02-18T14:14:31.176Z,49.58
2023-02-18T14:17:25.926Z,49.66
2023-02-18T14:20:15.953Z,49.52
2023-02-18T14:22:47.608Z,49.40
2023-02-18T14:25:36.223Z,49.37
2023-02-18T14:28:33.811Z,49.27
2023-02-18T14:31:05.052Z,49.10
2023-02-18T14:33:36.391Z,48.94
2023-02-18T14:36:11.693Z,48.83
2023-02-18T14:38:44.777Z,48.90
2023-02-18T14:41:25.892Z,48.87
2023-02-18T14:44:02.094Z,48.82
2023-02-18T14:46:42.804Z,48.72
2023-02-18T14:49:20.630Z,48.71
2023-02-18T14:51:52.709Z,48.68
2023-02-18T14:54:24.248Z,48.72
2023-02-18T14:56:57.057Z,48.62
2023-02-18T14:59:28.946Z,48.63
2023-02-18T15:01:59.884Z,48.63
2023-02-18T15:04:30.553Z,48.62
2023-02-18T15:07:01.813Z,48.66
2023-02-18T15:09:32.755Z,48.55
2023-02-18T15:12:04.658Z,48.72
2023-02-18T15:14:36.321Z,48.62
2023-02-18T15:17:07.054Z,48.60
2023-02-18T15:19:39.538Z,48.59
2023-02-18T15:22:14.807Z,48.65
2023-02-18T15:24:45.784Z,48.63
2023-02-18T15:27:17.092Z,48.56
2023-02-18T15:29:50.464Z,48.52
2023-02-18T15:32:22.353Z,48.66
2023-02-18T15:34:53.758Z,48.53
2023-02-18T15:37:24.538Z,48.64
2023-02-18T15:39:55.307Z,48.59
2023-02-18T15:42:28.327Z,48.58
2023-02-18T15:44:59.793Z,48.69
2023-02-18T15:47:30.725Z,48.63
2023-02-18T15:50:04.631Z,48.78
2023-02-18T15:52:36.444Z,48.75
2023-02-18T15:55:09.576Z,48.62
2023-02-18T15:57:41.648Z,48.70
2023-02-18T16:00:16.628Z,48.71
2023-02-18T16:02:57.464Z,48.67
2023-02-18T16:05:29.015Z,48.66
2023-02-18T16:08:01.076Z,48.65
2023-02-18T16:10:43.575Z,48.70
2023-02-18T16:13:16.165Z,48.72
2023-02-18T16:15:47.591Z,48.71
2023-02-18T16:18:24.380Z,48.76
2023-02-18T16:21:00.339Z,48.87
2023-02-18T16:23:41.631Z,48.84
2023-02-18T16:26:23.751Z,48.87
2023-02-18T16:29:01.518Z,48.76
2023-02-18T16:31:32.334Z,48.79
2023-02-18T16:34:05.637Z,48.83
2023-02-18T16:36:38.873Z,48.83
2023-02-18T16:39:10.795Z,48.90
2023-02-18T16:41:43.582Z,48.92
2023-02-18T16:44:15.198Z,48.95
2023-02-18T16:46:46.202Z,49.03
2023-02-18T16:49:20.393Z,49.05
2023-02-18T16:51:51.280Z,49.02
2023-02-18T16:54:22.582Z,49.04
2023-02-18T16:56:53.799Z,49.05
2023-02-18T16:59:25.838Z,49.09
2023-02-18T17:01:57.055Z,49.14
2023-02-18T17:04:28.541Z,49.14
2023-02-18T17:06:59.702Z,49.09
2023-02-18T17:09:32.208Z,49.25
2023-02-18T17:12:05.130Z,49.19
2023-02-18T17:14:36.031Z,49.23
2023-02-18T17:17:10.618Z,49.24
2023-02-18T17:19:41.577Z,49.48
2023-02-18T17:22:16.747Z,49.37
2023-02-18T17:24:47.635Z,49.36
2023-02-18T17:27:18.861Z,49.58
2023-02-18T17:29:49.491Z,49.55
2023-02-18T17:32:20.371Z,49.62
2023-02-18T17:34:52.484Z,49.66
2023-02-18T17:37:26.207Z,49.66
2023-02-18T17:39:59.762Z,49.70
2023-02-18T17:42:31.720Z,49.80
2023-02-18T17:45:06.487Z,49.77
2023-02-18T17:47:38.309Z,49.87
2023-02-18T17:50:10.420Z,49.92
2023-02-18T17:52:41.327Z,49.99
2023-02-18T17:55:15.478Z,50.00
2023-02-18T17:57:46.432Z,50.16
2023-02-18T18:00:19.013Z,50.19
2023-02-18T18:02:49.907Z,50.19
2023-02-18T18:05:22.630Z,50.31
2023-02-18T18:07:53.414Z,50.30
2023-02-18T18:10:28.583Z,50.39
2023-02-18T18:12:59.517Z,50.41
2023-02-18T18:15:31.692Z,50.48
2023-02-18T18:18:03.410Z,50.56
2023-02-18T18:20:34.900Z,50.64
2023-02-18T18:23:07.730Z,50.70
2023-02-18T18:25:46.871Z,50.71
2023-02-18T18:28:17.711Z,50.73
2023-02-18T18:30:52.388Z,50.79
2023-02-18T18:33:28.167Z,50.82
2023-02-18T18:36:02.458Z,50.94
2023-02-18T18:38:35.451Z,50.89
2023-02-18T18:41:10.923Z,50.90
2023-02-18T18:43:42.490Z,50.87
2023-02-18T18:46:13.486Z,51.03
2023-02-18T18:48:45.113Z,51.05
2023-02-18T18:51:17.175Z,51.01
2023-02-18T18:53:48.175Z,51.10
2023-02-18T18:56:18.870Z,51.12
2023-02-18T18:58:49.647Z,51.20
2023-02-18T19:01:27.180Z,51.30
2023-02-18T19:03:58.226Z,51.25
2023-02-18T19:06:31.190Z,51.29
2023-02-18T19:09:03.125Z,51.42
2023-02-18T19:11:35.870Z,51.43
2023-02-18T19:14:06.641Z,51.64
2023-02-18T19:16:40.653Z,51.59
2023-02-18T19:19:12.838Z,51.52
2023-02-18T19:21:59.382Z,51.60
2023-02-18T19:24:50.793Z,51.75
2023-02-18T19:27:26.092Z,51.74
2023-02-18T19:30:01.861Z,51.83
2023-02-18T19:32:35.228Z,51.78
2023-02-18T19:35:06.145Z,51.79
2023-02-18T19:37:37.369Z,51.93
2023-02-18T19:40:09.549Z,51.88
2023-02-18T19:42:41.224Z,51.99
2023-02-18T19:45:15.397Z,51.82
2023-02-18T19:47:49.398Z,51.97
2023-02-18T19:50:22.129Z,52.02
2023-02-18T19:52:56.416Z,51.96
2023-02-18T19:55:35.695Z,52.00
2023-02-18T19:58:10.795Z,52.11
2023-02-18T20:01:01.071Z,52.14
2023-02-18T20:04:37.704Z,52.25
2023-02-18T20:07:16.571Z,52.30
2023-02-18T20:10:05.883Z,52.30
2023-02-18T20:12:59.457Z,52.31
2023-02-18T20:15:32.553Z,52.40
2023-02-18T20:18:07.274Z,52.37
2023-02-18T20:20:45.334Z,52.48
2023-02-18T20:23:20.339Z,52.48
2023-02-18T20:25:52.233Z,52.55
2023-02-18T20:28:23.592Z,52.47
2023-02-18T20:31:05.276Z,52.45
2023-02-18T20:33:36.446Z,52.41
2023-02-18T20:36:09.483Z,52.33
2023-02-18T20:38:40.593Z,52.53
2023-02-18T20:41:15.290Z,52.44
2023-02-18T20:43:46.708Z,52.51
2023-02-18T20:46:23.335Z,52.47
2023-02-18T20:48:59.846Z,52.47
2023-02-18T20:57:50.316Z,52.54
2023-02-18T21:00:23.132Z,52.65
2023-02-18T21:02:54.125Z,52.52
2023-02-18T21:05:27.348Z,52.76
2023-02-18T21:07:58.113Z,52.75
2023-02-18T21:10:29.177Z,52.68
2023-02-18T21:13:00.051Z,52.73
2023-02-18T21:15:31.089Z,52.87
2023-02-18T21:18:01.896Z,52.85
2023-02-18T21:20:33.185Z,52.90
2023-02-18T21:23:04.941Z,53.01
2023-02-18T21:25:36.577Z,53.19
2023-02-18T21:28:08.241Z,53.13
2023-02-18T21:30:44.457Z,53.09
2023-02-18T21:33:17.783Z,53.16
2023-02-18T21:35:49.450Z,53.23
2023-02-18T21:38:20.276Z,53.25
2023-02-18T21:40:51.378Z,53.32
2023-02-18T21:43:22.267Z,53.38
2023-02-18T21:45:56.698Z,53.53
2023-02-18T21:48:47.123Z,53.51
2023-02-18T21:51:42.106Z,53.58
2023-02-18T21:54:16.060Z,53.61
2023-02-18T21:56:52.100Z,53.56
2023-02-18T21:59:27.469Z,53.67
2023-02-18T22:01:59.921Z,53.73
2023-02-18T22:04:31.669Z,53.65
2023-02-18T22:07:06.374Z,53.87
2023-02-18T22:09:38.187Z,53.89
2023-02-18T22:12:12.078Z,53.92
2023-02-18T22:14:45.329Z,54.00
2023-02-18T22:17:16.746Z,53.99
2023-02-18T22:19:47.990Z,54.13
2023-02-18T22:22:18.870Z,54.08
2023-02-18T22:24:49.798Z,54.04
2023-02-18T22:27:20.714Z,54.31
2023-02-18T22:29:54.089Z,54.24
2023-02-18T22:32:25.034Z,54.32
2023-02-18T22:34:56.153Z,54.39
2023-02-18T22:37:27.097Z,54.46
2023-02-18T22:39:57.934Z,54.68
2023-02-18T22:42:28.801Z,54.67
2023-02-18T22:45:02.887Z,54.70
2023-02-18T22:47:34.674Z,54.66
2023-02-18T22:50:05.854Z,54.74
2023-02-18T22:52:37.492Z,54.64
2023-02-18T22:55:10.446Z,54.54
2023-02-18T22:57:41.360Z,54.68
2023-02-18T23:00:13.677Z,54.63
2023-02-18T23:02:44.648Z,54.48
2023-02-18T23:05:15.645Z,54.54
2023-02-18T23:07:46.513Z,54.56
2023-02-18T23:10:18.087Z,54.60
2023-02-18T23:12:49.013Z,54.52
2023-02-18T23:15:21.075Z,54.67
2023-02-18T23:17:51.935Z,54.65
2023-02-18T23:20:37.946Z,54.66
2023-02-18T23:23:08.876Z,54.68
2023-02-18T23:25:57.129Z,54.80
2023-02-18T23:28:29.094Z,54.74
2023-02-18T23:30:59.951Z,54.90
2023-02-18T23:33:30.885Z,54.75
2023-02-18T23:36:10.475Z,54.93
2023-02-18T23:38:41.260Z,54.81
2023-02-18T23:41:12.378Z,54.99
2023-02-18T23:43:43.281Z,54.86
2023-02-18T23:46:14.524Z,54.96
2023-02-18T23:48:45.609Z,54.84
2023-02-18T23:51:17.069Z,54.93
2023-02-18T23:53:47.990Z,54.96
2023-02-18T23:56:19.551Z,55.13
2023-02-18T23:58:52.757Z,55.03
